sensor_id;sensor_type;location;lat;lon;timestamp;P1;durP1;ratioP1;P2;durP2;ratioP2
15393;SDS011;7795;47.986;11.868;2023-08-06T00:01:57;3.10;;;2.77;;
15393;SDS011;7795;47.986;11.868;2023-08-06T00:04:22;3.27;;;2.63;;
15393;SDS011;7795;47.986;11.868;2023-08-06T00:06:48;3.10;;;2.80;;
15393;SDS011;7795;47.986;11.868;2023-08-06T00:09:14;2.80;;;2.60;;
15393;SDS011;7795;47.986;11.868;2023-08-06T00:11:41;6.17;;;3.10;;
15393;SDS011;7795;47.986;11.868;2023-08-06T00:14:09;2.63;;;2.43;;
15393;SDS011;7795;47.986;11.868;2023-08-06T00:16:34;2.47;;;2.07;;
15393;SDS011;7795;47.986;11.868;2023-08-06T00:19:00;2.40;;;2.20;;
15393;SDS011;7795;47.986;11.868;2023-08-06T00:21:26;3.50;;;2.60;;
15393;SDS011;7795;47.986;11.868;2023-08-06T00:23:51;2.60;;;2.40;;
15393;SDS011;7795;47.986;11.868;2023-08-06T00:26:17;4.27;;;2.70;;
15393;SDS011;7795;47.986;11.868;2023-08-06T00:28:44;2.30;;;2.00;;
15393;SDS011;7795;47.986;11.868;2023-08-06T00:31:10;2.63;;;2.43;;
15393;SDS011;7795;47.986;11.868;2023-08-06T00:33:36;2.33;;;2.13;;
15393;SDS011;7795;47.986;11.868;2023-08-06T00:36:02;2.63;;;2.23;;
15393;SDS011;7795;47.986;11.868;2023-08-06T00:38:28;3.03;;;2.43;;
15393;SDS011;7795;47.986;11.868;2023-08-06T00:40:54;2.37;;;2.03;;
15393;SDS011;7795;47.986;11.868;2023-08-06T00:43:19;2.40;;;2.20;;
15393;SDS011;7795;47.986;11.868;2023-08-06T00:45:46;2.43;;;2.23;;
15393;SDS011;7795;47.986;11.868;2023-08-06T00:48:12;2.83;;;2.00;;
15393;SDS011;7795;47.986;11.868;2023-08-06T00:50:39;2.60;;;2.40;;
15393;SDS011;7795;47.986;11.868;2023-08-06T00:53:05;2.97;;;2.50;;
15393;SDS011;7795;47.986;11.868;2023-08-06T00:55:31;2.50;;;2.27;;
15393;SDS011;7795;47.986;11.868;2023-08-06T00:57:57;2.07;;;1.77;;
15393;SDS011;7795;47.986;11.868;2023-08-06T01:00:24;2.50;;;2.00;;
15393;SDS011;7795;47.986;11.868;2023-08-06T01:02:52;2.43;;;2.13;;
15393;SDS011;7795;47.986;11.868;2023-08-06T01:05:18;2.90;;;2.07;;
15393;SDS011;7795;47.986;11.868;2023-08-06T01:07:48;3.87;;;2.20;;
15393;SDS011;7795;47.986;11.868;2023-08-06T01:10:28;2.70;;;2.17;;
15393;SDS011;7795;47.986;11.868;2023-08-06T01:13:06;2.83;;;2.40;;
15393;SDS011;7795;47.986;11.868;2023-08-06T01:15:39;2.53;;;2.33;;
15393;SDS011;7795;47.986;11.868;2023-08-06T01:18:10;3.00;;;2.20;;
15393;SDS011;7795;47.986;11.868;2023-08-06T01:20:38;2.27;;;2.07;;
15393;SDS011;7795;47.986;11.868;2023-08-06T01:23:03;2.20;;;2.00;;
15393;SDS011;7795;47.986;11.868;2023-08-06T01:25:30;2.50;;;2.03;;
15393;SDS011;7795;47.986;11.868;2023-08-06T01:27:59;2.77;;;2.37;;
15393;SDS011;7795;47.986;11.868;2023-08-06T01:30:30;2.60;;;2.40;;
15393;SDS011;7795;47.986;11.868;2023-08-06T01:33:02;2.73;;;2.53;;
15393;SDS011;7795;47.986;11.868;2023-08-06T01:35:30;3.63;;;2.40;;
15393;SDS011;7795;47.986;11.868;2023-08-06T01:37:58;2.70;;;2.50;;
15393;SDS011;7795;47.986;11.868;2023-08-06T01:40:25;3.97;;;2.20;;
15393;SDS011;7795;47.986;11.868;2023-08-06T01:42:53;3.60;;;2.43;;
15393;SDS011;7795;47.986;11.868;2023-08-06T01:45:19;2.77;;;2.57;;
15393;SDS011;7795;47.986;11.868;2023-08-06T01:47:45;3.17;;;2.87;;
15393;SDS011;7795;47.986;11.868;2023-08-06T01:50:10;3.03;;;2.13;;
15393;SDS011;7795;47.986;11.868;2023-08-06T01:52:36;4.57;;;2.57;;
15393;SDS011;7795;47.986;11.868;2023-08-06T01:55:03;3.17;;;2.30;;
15393;SDS011;7795;47.986;11.868;2023-08-06T01:57:29;2.30;;;2.10;;
15393;SDS011;7795;47.986;11.868;2023-08-06T01:59:55;3.30;;;3.00;;
15393;SDS011;7795;47.986;11.868;2023-08-06T02:02:21;3.83;;;2.60;;
15393;SDS011;7795;47.986;11.868;2023-08-06T02:04:47;2.57;;;2.37;;
15393;SDS011;7795;47.986;11.868;2023-08-06T02:07:12;2.43;;;2.23;;
15393;SDS011;7795;47.986;11.868;2023-08-06T02:09:38;3.33;;;2.60;;
15393;SDS011;7795;47.986;11.868;2023-08-06T02:12:06;3.13;;;2.30;;
15393;SDS011;7795;47.986;11.868;2023-08-06T02:14:33;3.03;;;1.90;;
15393;SDS011;7795;47.986;11.868;2023-08-06T02:17:00;2.83;;;2.53;;
15393;SDS011;7795;47.986;11.868;2023-08-06T02:19:25;2.53;;;2.13;;
15393;SDS011;7795;47.986;11.868;2023-08-06T02:21:51;2.87;;;2.00;;
15393;SDS011;7795;47.986;11.868;2023-08-06T02:24:17;1.77;;;1.67;;
15393;SDS011;7795;47.986;11.868;2023-08-06T02:26:43;2.10;;;1.73;;
15393;SDS011;7795;47.986;11.868;2023-08-06T02:29:10;2.30;;;1.70;;
15393;SDS011;7795;47.986;11.868;2023-08-06T02:31:35;1.90;;;1.63;;
15393;SDS011;7795;47.986;11.868;2023-08-06T02:34:01;2.20;;;2.00;;
15393;SDS011;7795;47.986;11.868;2023-08-06T02:36:27;1.97;;;1.70;;
15393;SDS011;7795;47.986;11.868;2023-08-06T02:38:54;2.37;;;1.97;;
15393;SDS011;7795;47.986;11.868;2023-08-06T02:41:20;3.57;;;2.10;;
15393;SDS011;7795;47.986;11.868;2023-08-06T02:43:46;1.73;;;1.63;;
15393;SDS011;7795;47.986;11.868;2023-08-06T02:46:13;2.27;;;1.80;;
15393;SDS011;7795;47.986;11.868;2023-08-06T02:48:38;2.23;;;1.70;;
15393;SDS011;7795;47.986;11.868;2023-08-06T02:51:04;1.80;;;1.70;;
15393;SDS011;7795;47.986;11.868;2023-08-06T02:53:30;1.70;;;1.60;;
15393;SDS011;7795;47.986;11.868;2023-08-06T02:55:56;2.47;;;1.90;;
15393;SDS011;7795;47.986;11.868;2023-08-06T02:58:22;2.57;;;1.60;;
15393;SDS011;7795;47.986;11.868;2023-08-06T03:00:58;2.60;;;1.97;;
15393;SDS011;7795;47.986;11.868;2023-08-06T03:03:26;2.03;;;1.83;;
15393;SDS011;7795;47.986;11.868;2023-08-06T03:05:52;2.83;;;1.50;;
15393;SDS011;7795;47.986;11.868;2023-08-06T03:08:18;1.63;;;1.53;;
15393;SDS011;7795;47.986;11.868;2023-08-06T03:10:47;1.90;;;1.60;;
15393;SDS011;7795;47.986;11.868;2023-08-06T03:13:13;2.23;;;2.03;;
15393;SDS011;7795;47.986;11.868;2023-08-06T03:15:39;2.80;;;2.30;;
15393;SDS011;7795;47.986;11.868;2023-08-06T03:18:04;2.77;;;1.67;;
15393;SDS011;7795;47.986;11.868;2023-08-06T03:20:32;2.67;;;1.90;;
15393;SDS011;7795;47.986;11.868;2023-08-06T03:22:58;2.00;;;1.80;;
15393;SDS011;7795;47.986;11.868;2023-08-06T03:25:24;1.70;;;1.50;;
15393;SDS011;7795;47.986;11.868;2023-08-06T03:27:49;2.37;;;1.50;;
15393;SDS011;7795;47.986;11.868;2023-08-06T03:30:15;1.50;;;1.40;;
15393;SDS011;7795;47.986;11.868;2023-08-06T03:32:41;2.33;;;1.87;;
15393;SDS011;7795;47.986;11.868;2023-08-06T03:35:07;2.10;;;1.70;;
15393;SDS011;7795;47.986;11.868;2023-08-06T03:37:34;2.93;;;1.50;;
15393;SDS011;7795;47.986;11.868;2023-08-06T03:40:00;1.60;;;1.37;;
15393;SDS011;7795;47.986;11.868;2023-08-06T03:42:26;1.63;;;1.47;;
15393;SDS011;7795;47.986;11.868;2023-08-06T03:44:51;1.70;;;1.60;;
15393;SDS011;7795;47.986;11.868;2023-08-06T03:47:17;2.37;;;1.73;;
15393;SDS011;7795;47.986;11.868;2023-08-06T03:49:43;1.87;;;1.50;;
15393;SDS011;7795;47.986;11.868;2023-08-06T03:52:08;1.97;;;1.23;;
15393;SDS011;7795;47.986;11.868;2023-08-06T03:54:35;2.60;;;1.80;;
15393;SDS011;7795;47.986;11.868;2023-08-06T03:57:01;2.23;;;1.47;;
15393;SDS011;7795;47.986;11.868;2023-08-06T03:59:27;2.27;;;1.70;;
15393;SDS011;7795;47.986;11.868;2023-08-06T04:01:53;2.87;;;1.40;;
15393;SDS011;7795;47.986;11.868;2023-08-06T04:04:19;2.77;;;1.63;;
15393;SDS011;7795;47.986;11.868;2023-08-06T04:06:44;3.23;;;1.40;;
15393;SDS011;7795;47.986;11.868;2023-08-06T04:09:10;1.47;;;1.00;;
15393;SDS011;7795;47.986;11.868;2023-08-06T04:11:37;1.97;;;1.40;;
15393;SDS011;7795;47.986;11.868;2023-08-06T04:14:03;1.57;;;1.47;;
15393;SDS011;7795;47.986;11.868;2023-08-06T04:16:29;1.57;;;1.30;;
15393;SDS011;7795;47.986;11.868;2023-08-06T04:18:54;1.97;;;1.30;;
15393;SDS011;7795;47.986;11.868;2023-08-06T04:21:20;2.70;;;1.50;;
15393;SDS011;7795;47.986;11.868;2023-08-06T04:23:46;2.07;;;1.67;;
15393;SDS011;7795;47.986;11.868;2023-08-06T04:26:12;1.73;;;1.50;;
15393;SDS011;7795;47.986;11.868;2023-08-06T04:28:39;2.47;;;1.50;;
15393;SDS011;7795;47.986;11.868;2023-08-06T04:31:05;1.30;;;1.20;;
15393;SDS011;7795;47.986;11.868;2023-08-06T04:33:30;1.30;;;1.20;;
15393;SDS011;7795;47.986;11.868;2023-08-06T04:35:56;1.50;;;1.30;;
15393;SDS011;7795;47.986;11.868;2023-08-06T04:38:23;1.40;;;1.30;;
15393;SDS011;7795;47.986;11.868;2023-08-06T04:40:50;1.47;;;1.37;;
15393;SDS011;7795;47.986;11.868;2023-08-06T04:43:16;2.07;;;1.60;;
15393;SDS011;7795;47.986;11.868;2023-08-06T04:45:46;1.67;;;1.20;;
15393;SDS011;7795;47.986;11.868;2023-08-06T04:48:12;2.00;;;1.70;;
15393;SDS011;7795;47.986;11.868;2023-08-06T04:50:38;1.10;;;1.00;;
15393;SDS011;7795;47.986;11.868;2023-08-06T04:53:07;1.40;;;1.30;;
15393;SDS011;7795;47.986;11.868;2023-08-06T04:55:33;1.97;;;1.40;;
15393;SDS011;7795;47.986;11.868;2023-08-06T04:57:59;1.73;;;1.40;;
15393;SDS011;7795;47.986;11.868;2023-08-06T05:00:24;1.20;;;1.10;;
15393;SDS011;7795;47.986;11.868;2023-08-06T05:02:52;1.43;;;1.33;;
15393;SDS011;7795;47.986;11.868;2023-08-06T05:05:17;1.80;;;1.20;;
15393;SDS011;7795;47.986;11.868;2023-08-06T05:07:43;1.43;;;1.30;;
15393;SDS011;7795;47.986;11.868;2023-08-06T05:10:10;2.10;;;1.50;;
15393;SDS011;7795;47.986;11.868;2023-08-06T05:12:36;2.07;;;1.30;;
15393;SDS011;7795;47.986;11.868;2023-08-06T05:15:01;1.70;;;1.30;;
15393;SDS011;7795;47.986;11.868;2023-08-06T05:17:27;1.80;;;1.40;;
15393;SDS011;7795;47.986;11.868;2023-08-06T05:19:55;2.07;;;1.33;;
15393;SDS011;7795;47.986;11.868;2023-08-06T05:22:20;1.20;;;1.10;;
15393;SDS011;7795;47.986;11.868;2023-08-06T05:24:46;1.20;;;1.10;;
15393;SDS011;7795;47.986;11.868;2023-08-06T05:27:12;1.60;;;1.50;;
15393;SDS011;7795;47.986;11.868;2023-08-06T05:29:37;1.40;;;1.30;;
15393;SDS011;7795;47.986;11.868;2023-08-06T05:32:04;1.43;;;1.20;;
15393;SDS011;7795;47.986;11.868;2023-08-06T05:34:30;1.67;;;1.17;;
15393;SDS011;7795;47.986;11.868;2023-08-06T05:36:57;1.87;;;1.30;;
15393;SDS011;7795;47.986;11.868;2023-08-06T05:39:22;1.20;;;1.10;;
15393;SDS011;7795;47.986;11.868;2023-08-06T05:41:48;1.60;;;1.37;;
15393;SDS011;7795;47.986;11.868;2023-08-06T05:44:15;1.37;;;1.27;;
15393;SDS011;7795;47.986;11.868;2023-08-06T05:46:41;2.17;;;1.40;;
15393;SDS011;7795;47.986;11.868;2023-08-06T05:49:06;1.20;;;1.10;;
15393;SDS011;7795;47.986;11.868;2023-08-06T05:51:32;1.40;;;1.13;;
15393;SDS011;7795;47.986;11.868;2023-08-06T05:53:59;1.47;;;1.20;;
15393;SDS011;7795;47.986;11.868;2023-08-06T05:56:25;1.60;;;1.23;;
15393;SDS011;7795;47.986;11.868;2023-08-06T05:58:51;1.93;;;1.80;;
15393;SDS011;7795;47.986;11.868;2023-08-06T06:01:18;1.70;;;1.43;;
15393;SDS011;7795;47.986;11.868;2023-08-06T06:03:43;1.63;;;1.20;;
15393;SDS011;7795;47.986;11.868;2023-08-06T06:06:09;1.50;;;1.20;;
15393;SDS011;7795;47.986;11.868;2023-08-06T06:08:35;2.10;;;1.33;;
15393;SDS011;7795;47.986;11.868;2023-08-06T06:11:02;1.20;;;1.10;;
15393;SDS011;7795;47.986;11.868;2023-08-06T06:13:28;1.73;;;1.10;;
15393;SDS011;7795;47.986;11.868;2023-08-06T06:15:54;1.10;;;1.00;;
15393;SDS011;7795;47.986;11.868;2023-08-06T06:18:20;1.93;;;1.03;;
15393;SDS011;7795;47.986;11.868;2023-08-06T06:20:45;1.43;;;1.00;;
15393;SDS011;7795;47.986;11.868;2023-08-06T06:23:11;1.40;;;1.30;;
15393;SDS011;7795;47.986;11.868;2023-08-06T06:25:41;2.83;;;1.57;;
15393;SDS011;7795;47.986;11.868;2023-08-06T06:28:08;1.10;;;0.80;;
15393;SDS011;7795;47.986;11.868;2023-08-06T06:30:34;1.53;;;1.03;;
15393;SDS011;7795;47.986;11.868;2023-08-06T06:33:00;1.97;;;1.37;;
15393;SDS011;7795;47.986;11.868;2023-08-06T06:35:26;1.80;;;1.30;;
15393;SDS011;7795;47.986;11.868;2023-08-06T06:37:51;2.23;;;1.20;;
15393;SDS011;7795;47.986;11.868;2023-08-06T06:40:17;1.20;;;1.10;;
15393;SDS011;7795;47.986;11.868;2023-08-06T06:42:43;3.17;;;1.00;;
15393;SDS011;7795;47.986;11.868;2023-08-06T06:45:10;2.10;;;1.10;;
15393;SDS011;7795;47.986;11.868;2023-08-06T06:47:36;1.87;;;1.20;;
15393;SDS011;7795;47.986;11.868;2023-08-06T06:50:02;1.57;;;0.93;;
15393;SDS011;7795;47.986;11.868;2023-08-06T06:52:27;1.33;;;1.03;;
15393;SDS011;7795;47.986;11.868;2023-08-06T06:54:54;1.37;;;1.00;;
15393;SDS011;7795;47.986;11.868;2023-08-06T06:57:20;2.43;;;1.20;;
15393;SDS011;7795;47.986;11.868;2023-08-06T06:59:45;1.37;;;0.90;;
15393;SDS011;7795;47.986;11.868;2023-08-06T07:02:12;1.00;;;0.83;;
15393;SDS011;7795;47.986;11.868;2023-08-06T07:04:38;1.10;;;0.90;;
15393;SDS011;7795;47.986;11.868;2023-08-06T07:07:04;1.30;;;0.90;;
15393;SDS011;7795;47.986;11.868;2023-08-06T07:09:30;4.87;;;1.30;;
15393;SDS011;7795;47.986;11.868;2023-08-06T07:11:56;1.40;;;1.07;;
15393;SDS011;7795;47.986;11.868;2023-08-06T07:14:22;1.53;;;0.93;;
15393;SDS011;7795;47.986;11.868;2023-08-06T07:16:49;1.30;;;1.07;;
15393;SDS011;7795;47.986;11.868;2023-08-06T07:19:16;1.73;;;0.97;;
15393;SDS011;7795;47.986;11.868;2023-08-06T07:21:42;1.10;;;0.73;;
15393;SDS011;7795;47.986;11.868;2023-08-06T07:24:07;1.73;;;0.90;;
15393;SDS011;7795;47.986;11.868;2023-08-06T07:26:33;1.90;;;0.93;;
15393;SDS011;7795;47.986;11.868;2023-08-06T07:28:59;1.67;;;0.90;;
15393;SDS011;7795;47.986;11.868;2023-08-06T07:31:25;1.20;;;1.10;;
15393;SDS011;7795;47.986;11.868;2023-08-06T07:33:51;2.03;;;1.07;;
15393;SDS011;7795;47.986;11.868;2023-08-06T07:36:18;2.93;;;1.10;;
15393;SDS011;7795;47.986;11.868;2023-08-06T07:38:43;2.03;;;1.07;;
15393;SDS011;7795;47.986;11.868;2023-08-06T07:41:09;1.00;;;0.80;;
15393;SDS011;7795;47.986;11.868;2023-08-06T07:43:35;1.73;;;0.90;;
15393;SDS011;7795;47.986;11.868;2023-08-06T07:46:01;1.00;;;0.90;;
15393;SDS011;7795;47.986;11.868;2023-08-06T07:48:27;2.50;;;1.30;;
15393;SDS011;7795;47.986;11.868;2023-08-06T07:50:53;1.43;;;0.80;;
15393;SDS011;7795;47.986;11.868;2023-08-06T07:53:21;1.70;;;0.90;;
15393;SDS011;7795;47.986;11.868;2023-08-06T07:55:48;1.93;;;1.10;;
15393;SDS011;7795;47.986;11.868;2023-08-06T07:58:15;2.10;;;0.80;;
15393;SDS011;7795;47.986;11.868;2023-08-06T08:00:40;1.00;;;0.80;;
15393;SDS011;7795;47.986;11.868;2023-08-06T08:03:07;2.43;;;1.00;;
15393;SDS011;7795;47.986;11.868;2023-08-06T08:05:33;3.23;;;1.07;;
15393;SDS011;7795;47.986;11.868;2023-08-06T08:07:59;1.23;;;0.70;;
15393;SDS011;7795;47.986;11.868;2023-08-06T08:10:26;5.43;;;1.27;;
15393;SDS011;7795;47.986;11.868;2023-08-06T08:12:51;1.70;;;0.90;;
15393;SDS011;7795;47.986;11.868;2023-08-06T08:15:17;1.07;;;0.80;;
15393;SDS011;7795;47.986;11.868;2023-08-06T08:17:43;0.97;;;0.77;;
15393;SDS011;7795;47.986;11.868;2023-08-06T08:20:09;3.23;;;1.10;;
15393;SDS011;7795;47.986;11.868;2023-08-06T08:22:35;1.40;;;1.00;;
15393;SDS011;7795;47.986;11.868;2023-08-06T08:25:01;1.37;;;0.90;;
15393;SDS011;7795;47.986;11.868;2023-08-06T08:27:29;1.47;;;0.87;;
15393;SDS011;7795;47.986;11.868;2023-08-06T08:29:55;2.03;;;0.97;;
15393;SDS011;7795;47.986;11.868;2023-08-06T08:32:21;1.00;;;0.73;;
15393;SDS011;7795;47.986;11.868;2023-08-06T08:34:47;2.90;;;1.00;;
15393;SDS011;7795;47.986;11.868;2023-08-06T08:37:13;1.33;;;0.70;;
15393;SDS011;7795;47.986;11.868;2023-08-06T08:39:38;2.13;;;0.90;;
15393;SDS011;7795;47.986;11.868;2023-08-06T08:42:04;1.23;;;0.70;;
15393;SDS011;7795;47.986;11.868;2023-08-06T08:44:33;1.27;;;0.67;;
15393;SDS011;7795;47.986;11.868;2023-08-06T08:47:02;0.93;;;0.70;;
15393;SDS011;7795;47.986;11.868;2023-08-06T08:49:29;1.93;;;0.80;;
15393;SDS011;7795;47.986;11.868;2023-08-06T08:51:55;0.77;;;0.50;;
15393;SDS011;7795;47.986;11.868;2023-08-06T08:54:24;0.87;;;0.50;;
15393;SDS011;7795;47.986;11.868;2023-08-06T08:56:51;1.07;;;0.60;;
15393;SDS011;7795;47.986;11.868;2023-08-06T08:59:17;1.13;;;0.60;;
15393;SDS011;7795;47.986;11.868;2023-08-06T09:01:44;1.03;;;0.70;;
15393;SDS011;7795;47.986;11.868;2023-08-06T09:04:15;0.87;;;0.77;;
15393;SDS011;7795;47.986;11.868;2023-08-06T09:06:41;1.10;;;0.60;;
15393;SDS011;7795;47.986;11.868;2023-08-06T09:09:12;0.83;;;0.50;;
15393;SDS011;7795;47.986;11.868;2023-08-06T09:11:42;0.50;;;0.50;;
15393;SDS011;7795;47.986;11.868;2023-08-06T09:14:09;0.50;;;0.50;;
15393;SDS011;7795;47.986;11.868;2023-08-06T09:16:35;2.13;;;0.57;;
15393;SDS011;7795;47.986;11.868;2023-08-06T09:19:08;1.50;;;0.40;;
15393;SDS011;7795;47.986;11.868;2023-08-06T09:21:35;0.87;;;0.77;;
15393;SDS011;7795;47.986;11.868;2023-08-06T09:24:03;0.73;;;0.33;;
15393;SDS011;7795;47.986;11.868;2023-08-06T09:26:33;0.33;;;0.33;;
15393;SDS011;7795;47.986;11.868;2023-08-06T09:28:59;0.30;;;0.30;;
15393;SDS011;7795;47.986;11.868;2023-08-06T09:31:25;1.23;;;0.30;;
15393;SDS011;7795;47.986;11.868;2023-08-06T09:33:59;0.37;;;0.30;;
15393;SDS011;7795;47.986;11.868;2023-08-06T09:36:28;1.90;;;0.40;;
15393;SDS011;7795;47.986;11.868;2023-08-06T09:38:53;0.23;;;0.23;;
15393;SDS011;7795;47.986;11.868;2023-08-06T09:41:25;0.57;;;0.20;;
15393;SDS011;7795;47.986;11.868;2023-08-06T09:43:54;0.87;;;0.50;;
15393;SDS011;7795;47.986;11.868;2023-08-06T09:46:20;0.40;;;0.30;;
15393;SDS011;7795;47.986;11.868;2023-08-06T09:48:47;0.40;;;0.40;;
15393;SDS011;7795;47.986;11.868;2023-08-06T09:51:13;0.30;;;0.30;;
15393;SDS011;7795;47.986;11.868;2023-08-06T09:53:41;1.07;;;0.37;;
15393;SDS011;7795;47.986;11.868;2023-08-06T09:56:08;1.50;;;0.30;;
15393;SDS011;7795;47.986;11.868;2023-08-06T09:58:34;0.50;;;0.30;;
15393;SDS011;7795;47.986;11.868;2023-08-06T10:01:01;1.60;;;0.40;;
15393;SDS011;7795;47.986;11.868;2023-08-06T10:03:29;0.43;;;0.30;;
15393;SDS011;7795;47.986;11.868;2023-08-06T10:05:55;1.27;;;0.40;;
15393;SDS011;7795;47.986;11.868;2023-08-06T10:08:22;0.80;;;0.20;;
15393;SDS011;7795;47.986;11.868;2023-08-06T10:10:49;0.67;;;0.30;;
15393;SDS011;7795;47.986;11.868;2023-08-06T10:13:15;1.20;;;0.33;;
15393;SDS011;7795;47.986;11.868;2023-08-06T10:15:44;0.40;;;0.40;;
15393;SDS011;7795;47.986;11.868;2023-08-06T10:18:10;0.87;;;0.50;;
15393;SDS011;7795;47.986;11.868;2023-08-06T10:20:37;0.70;;;0.43;;
15393;SDS011;7795;47.986;11.868;2023-08-06T10:23:03;0.40;;;0.20;;
15393;SDS011;7795;47.986;11.868;2023-08-06T10:25:31;0.30;;;0.20;;
15393;SDS011;7795;47.986;11.868;2023-08-06T10:28:00;0.40;;;0.30;;
15393;SDS011;7795;47.986;11.868;2023-08-06T10:30:32;0.67;;;0.20;;
15393;SDS011;7795;47.986;11.868;2023-08-06T10:32:59;0.10;;;0.10;;
15393;SDS011;7795;47.986;11.868;2023-08-06T10:35:30;0.33;;;0.33;;
15393;SDS011;7795;47.986;11.868;2023-08-06T10:37:57;0.20;;;0.20;;
15393;SDS011;7795;47.986;11.868;2023-08-06T10:40:24;0.93;;;0.40;;
15393;SDS011;7795;47.986;11.868;2023-08-06T10:42:51;1.03;;;0.57;;
15393;SDS011;7795;47.986;11.868;2023-08-06T10:45:18;0.27;;;0.27;;
15393;SDS011;7795;47.986;11.868;2023-08-06T10:47:45;0.83;;;0.40;;
15393;SDS011;7795;47.986;11.868;2023-08-06T10:50:12;0.20;;;0.20;;
15393;SDS011;7795;47.986;11.868;2023-08-06T10:52:41;0.27;;;0.20;;
15393;SDS011;7795;47.986;11.868;2023-08-06T10:55:07;0.20;;;0.20;;
15393;SDS011;7795;47.986;11.868;2023-08-06T10:57:34;0.77;;;0.20;;
15393;SDS011;7795;47.986;11.868;2023-08-06T11:00:00;0.30;;;0.20;;
15393;SDS011;7795;47.986;11.868;2023-08-06T11:02:27;1.00;;;0.83;;
15393;SDS011;7795;47.986;11.868;2023-08-06T11:04:53;0.30;;;0.30;;
15393;SDS011;7795;47.986;11.868;2023-08-06T11:07:19;1.07;;;0.40;;
15393;SDS011;7795;47.986;11.868;2023-08-06T11:09:49;0.40;;;0.40;;
15393;SDS011;7795;47.986;11.868;2023-08-06T11:12:18;0.30;;;0.30;;
15393;SDS011;7795;47.986;11.868;2023-08-06T11:15:00;0.63;;;0.43;;
15393;SDS011;7795;47.986;11.868;2023-08-06T11:17:28;1.33;;;0.50;;
15393;SDS011;7795;47.986;11.868;2023-08-06T11:19:55;1.20;;;0.40;;
15393;SDS011;7795;47.986;11.868;2023-08-06T11:22:21;0.20;;;0.20;;
15393;SDS011;7795;47.986;11.868;2023-08-06T11:24:47;0.30;;;0.30;;
15393;SDS011;7795;47.986;11.868;2023-08-06T11:27:13;0.30;;;0.30;;
15393;SDS011;7795;47.986;11.868;2023-08-06T11:29:40;1.60;;;0.33;;
15393;SDS011;7795;47.986;11.868;2023-08-06T11:32:08;0.20;;;0.20;;
15393;SDS011;7795;47.986;11.868;2023-08-06T11:34:34;0.13;;;0.13;;
15393;SDS011;7795;47.986;11.868;2023-08-06T11:37:00;0.20;;;0.20;;
15393;SDS011;7795;47.986;11.868;2023-08-06T11:39:28;0.40;;;0.20;;
15393;SDS011;7795;47.986;11.868;2023-08-06T11:41:54;0.30;;;0.30;;
15393;SDS011;7795;47.986;11.868;2023-08-06T11:44:20;0.20;;;0.20;;
15393;SDS011;7795;47.986;11.868;2023-08-06T11:46:51;0.30;;;0.30;;
15393;SDS011;7795;47.986;11.868;2023-08-06T11:49:22;0.20;;;0.20;;
15393;SDS011;7795;47.986;11.868;2023-08-06T11:52:07;0.60;;;0.30;;
15393;SDS011;7795;47.986;11.868;2023-08-06T11:54:36;0.27;;;0.23;;
15393;SDS011;7795;47.986;11.868;2023-08-06T11:57:02;0.20;;;0.20;;
15393;SDS011;7795;47.986;11.868;2023-08-06T11:59:28;0.20;;;0.20;;
15393;SDS011;7795;47.986;11.868;2023-08-06T12:01:54;0.70;;;0.20;;
15393;SDS011;7795;47.986;11.868;2023-08-06T12:04:20;1.13;;;0.40;;
15393;SDS011;7795;47.986;11.868;2023-08-06T12:06:47;0.97;;;0.30;;
15393;SDS011;7795;47.986;11.868;2023-08-06T12:09:12;0.20;;;0.20;;
15393;SDS011;7795;47.986;11.868;2023-08-06T12:11:38;0.20;;;0.20;;
15393;SDS011;7795;47.986;11.868;2023-08-06T12:14:04;0.20;;;0.20;;
15393;SDS011;7795;47.986;11.868;2023-08-06T12:16:29;0.30;;;0.30;;
15393;SDS011;7795;47.986;11.868;2023-08-06T12:18:55;0.83;;;0.20;;
15393;SDS011;7795;47.986;11.868;2023-08-06T12:21:21;0.57;;;0.57;;
15393;SDS011;7795;47.986;11.868;2023-08-06T12:23:48;0.80;;;0.30;;
15393;SDS011;7795;47.986;11.868;2023-08-06T12:26:14;0.33;;;0.30;;
15393;SDS011;7795;47.986;11.868;2023-08-06T12:28:39;0.30;;;0.30;;
15393;SDS011;7795;47.986;11.868;2023-08-06T12:31:05;0.20;;;0.20;;
15393;SDS011;7795;47.986;11.868;2023-08-06T12:33:31;0.30;;;0.30;;
15393;SDS011;7795;47.986;11.868;2023-08-06T12:35:57;0.70;;;0.30;;
15393;SDS011;7795;47.986;11.868;2023-08-06T12:38:23;0.73;;;0.20;;
15393;SDS011;7795;47.986;11.868;2023-08-06T12:40:50;0.30;;;0.30;;
15393;SDS011;7795;47.986;11.868;2023-08-06T12:43:16;0.60;;;0.30;;
15393;SDS011;7795;47.986;11.868;2023-08-06T12:45:42;0.97;;;0.30;;
15393;SDS011;7795;47.986;11.868;2023-08-06T12:48:07;0.20;;;0.20;;
15393;SDS011;7795;47.986;11.868;2023-08-06T12:50:33;0.10;;;0.10;;
15393;SDS011;7795;47.986;11.868;2023-08-06T12:52:59;0.87;;;0.20;;
15393;SDS011;7795;47.986;11.868;2023-08-06T12:55:25;0.67;;;0.20;;
15393;SDS011;7795;47.986;11.868;2023-08-06T12:57:52;1.07;;;0.30;;
15393;SDS011;7795;47.986;11.868;2023-08-06T13:00:18;0.30;;;0.30;;
15393;SDS011;7795;47.986;11.868;2023-08-06T13:02:44;0.53;;;0.40;;
15393;SDS011;7795;47.986;11.868;2023-08-06T13:05:10;0.20;;;0.20;;
15393;SDS011;7795;47.986;11.868;2023-08-06T13:07:35;0.27;;;0.27;;
15393;SDS011;7795;47.986;11.868;2023-08-06T13:10:01;0.53;;;0.30;;
15393;SDS011;7795;47.986;11.868;2023-08-06T13:12:27;0.50;;;0.37;;
15393;SDS011;7795;47.986;11.868;2023-08-06T13:14:54;0.97;;;0.30;;
15393;SDS011;7795;47.986;11.868;2023-08-06T13:17:22;0.30;;;0.30;;
15393;SDS011;7795;47.986;11.868;2023-08-06T13:19:48;0.43;;;0.30;;
15393;SDS011;7795;47.986;11.868;2023-08-06T13:22:14;0.60;;;0.30;;
15393;SDS011;7795;47.986;11.868;2023-08-06T13:24:40;0.73;;;0.30;;
15393;SDS011;7795;47.986;11.868;2023-08-06T13:27:06;0.40;;;0.40;;
15393;SDS011;7795;47.986;11.868;2023-08-06T13:29:32;0.30;;;0.30;;
15393;SDS011;7795;47.986;11.868;2023-08-06T13:31:59;0.43;;;0.30;;
15393;SDS011;7795;47.986;11.868;2023-08-06T13:34:25;0.30;;;0.30;;
15393;SDS011;7795;47.986;11.868;2023-08-06T13:36:50;0.10;;;0.10;;
15393;SDS011;7795;47.986;11.868;2023-08-06T13:39:16;0.37;;;0.30;;
15393;SDS011;7795;47.986;11.868;2023-08-06T13:41:42;0.80;;;0.30;;
15393;SDS011;7795;47.986;11.868;2023-08-06T13:44:08;0.20;;;0.20;;
15393;SDS011;7795;47.986;11.868;2023-08-06T13:46:34;0.30;;;0.30;;
15393;SDS011;7795;47.986;11.868;2023-08-06T13:49:01;0.87;;;0.30;;
15393;SDS011;7795;47.986;11.868;2023-08-06T13:51:27;0.50;;;0.27;;
15393;SDS011;7795;47.986;11.868;2023-08-06T13:53:53;0.20;;;0.20;;
15393;SDS011;7795;47.986;11.868;2023-08-06T13:56:19;1.13;;;0.30;;
15393;SDS011;7795;47.986;11.868;2023-08-06T13:58:45;0.30;;;0.30;;
15393;SDS011;7795;47.986;11.868;2023-08-06T14:01:11;0.77;;;0.30;;
15393;SDS011;7795;47.986;11.868;2023-08-06T14:03:36;0.30;;;0.30;;
15393;SDS011;7795;47.986;11.868;2023-08-06T14:06:04;0.90;;;0.30;;
15393;SDS011;7795;47.986;11.868;2023-08-06T14:08:29;0.83;;;0.30;;
15393;SDS011;7795;47.986;11.868;2023-08-06T14:10:55;0.30;;;0.30;;
15393;SDS011;7795;47.986;11.868;2023-08-06T14:13:21;0.20;;;0.20;;
15393;SDS011;7795;47.986;11.868;2023-08-06T14:15:47;1.27;;;0.30;;
15393;SDS011;7795;47.986;11.868;2023-08-06T14:18:13;0.20;;;0.20;;
15393;SDS011;7795;47.986;11.868;2023-08-06T14:20:39;0.27;;;0.27;;
15393;SDS011;7795;47.986;11.868;2023-08-06T14:23:06;1.70;;;0.20;;
15393;SDS011;7795;47.986;11.868;2023-08-06T14:25:32;0.30;;;0.30;;
15393;SDS011;7795;47.986;11.868;2023-08-06T14:27:58;0.27;;;0.27;;
15393;SDS011;7795;47.986;11.868;2023-08-06T14:30:24;1.07;;;0.30;;
15393;SDS011;7795;47.986;11.868;2023-08-06T14:32:49;0.40;;;0.40;;
15393;SDS011;7795;47.986;11.868;2023-08-06T14:35:15;0.53;;;0.47;;
15393;SDS011;7795;47.986;11.868;2023-08-06T14:37:41;0.40;;;0.40;;
15393;SDS011;7795;47.986;11.868;2023-08-06T14:40:09;0.23;;;0.20;;
15393;SDS011;7795;47.986;11.868;2023-08-06T14:42:36;0.77;;;0.30;;
15393;SDS011;7795;47.986;11.868;2023-08-06T14:45:01;0.40;;;0.30;;